createdAt,value
2022-11-17T00:00:28.280Z,1001.12
2022-11-17T00:00:58.877Z,1001.11
2022-11-17T00:01:29.420Z,1001.10
2022-11-17T00:02:00.054Z,1001.08
2022-11-17T00:02:30.714Z,1001.06
2022-11-17T00:03:01.345Z,1001.05
2022-11-17T00:03:32.055Z,1001.04
2022-11-17T00:04:02.675Z,1001.02
2022-11-17T00:04:33.323Z,1001.02
2022-11-17T00:05:03.883Z,1001.01
2022-11-17T00:05:34.463Z,1001.01
2022-11-17T00:06:05.045Z,1001.01
2022-11-17T00:06:35.632Z,1001.01
2022-11-17T00:07:06.260Z,1001.01
2022-11-17T00:07:36.856Z,1001.02
2022-11-17T00:08:07.432Z,1001.02
2022-11-17T00:08:38.002Z,1001.02
2022-11-17T00:09:08.611Z,1001.02
2022-11-17T00:09:39.330Z,1001.02
2022-11-17T00:10:09.864Z,1001.01
2022-11-17T00:10:40.428Z,1001.01
2022-11-17T00:11:10.982Z,1001.00
2022-11-17T00:11:41.565Z,1001.00
2022-11-17T00:12:12.127Z,1000.99
2022-11-17T00:12:42.726Z,1000.99
2022-11-17T00:13:13.455Z,1000.99
2022-11-17T00:13:44.015Z,1000.99
2022-11-17T00:14:14.596Z,1000.99
2022-11-17T00:14:45.184Z,1000.98
2022-11-17T00:15:15.744Z,1000.98
2022-11-17T00:15:46.331Z,1000.97
2022-11-17T00:16:16.903Z,1000.97
2022-11-17T00:16:47.471Z,1000.96
2022-11-17T00:17:18.044Z,1000.95
2022-11-17T00:17:48.638Z,1000.95
2022-11-17T00:18:19.224Z,1000.94
2022-11-17T00:18:49.798Z,1000.94
2022-11-17T00:19:20.395Z,1000.95
2022-11-17T00:19:51.010Z,1000.96
2022-11-17T00:20:21.577Z,1000.97
2022-11-17T00:20:52.136Z,1000.97
2022-11-17T00:21:22.703Z,1000.98
2022-11-17T00:21:53.264Z,1000.99
2022-11-17T00:22:23.839Z,1000.99
2022-11-17T00:22:54.422Z,1000.99
2022-11-17T00:23:24.982Z,1000.99
2022-11-17T00:23:55.624Z,1000.98
2022-11-17T00:24:26.203Z,1000.96
2022-11-17T00:24:56.904Z,1000.95
2022-11-17T00:25:27.438Z,1000.94
2022-11-17T00:25:58.037Z,1000.92
2022-11-17T00:26:28.567Z,1000.91
2022-11-17T00:26:59.155Z,1000.90
2022-11-17T00:27:29.721Z,1000.89
2022-11-17T00:28:00.304Z,1000.88
2022-11-17T00:28:30.875Z,1000.88
2022-11-17T00:29:01.458Z,1000.87
2022-11-17T00:29:32.073Z,1000.88
2022-11-17T00:30:02.697Z,1000.87
2022-11-17T00:30:33.264Z,1000.86
2022-11-17T00:31:03.838Z,1000.85
2022-11-17T00:31:34.416Z,1000.83
2022-11-17T00:32:04.987Z,1000.82
2022-11-17T00:32:35.579Z,1000.81
2022-11-17T00:33:06.135Z,1000.80
2022-11-17T00:33:37.077Z,1000.79
2022-11-17T00:34:07.452Z,1000.79
2022-11-17T00:34:38.073Z,1000.78
2022-11-17T00:35:08.677Z,1000.77
2022-11-17T00:35:39.252Z,1000.76
2022-11-17T00:36:09.860Z,1000.75
2022-11-17T00:36:40.415Z,1000.74
2022-11-17T00:37:10.992Z,1000.74
2022-11-17T00:37:41.565Z,1000.73
2022-11-17T00:38:12.133Z,1000.73
2022-11-17T00:38:42.712Z,1000.74
2022-11-17T00:39:13.291Z,1000.75
2022-11-17T00:39:43.883Z,1000.75
2022-11-17T00:40:14.491Z,1000.75
2022-11-17T00:40:45.041Z,1000.76
2022-11-17T00:41:15.595Z,1000.77
2022-11-17T00:41:46.155Z,1000.77
2022-11-17T00:42:16.739Z,1000.78
2022-11-17T00:42:47.298Z,1000.79
2022-11-17T00:43:17.842Z,1000.80
2022-11-17T00:43:48.393Z,1000.81
2022-11-17T00:44:18.997Z,1000.81
2022-11-17T00:44:49.573Z,1000.81
2022-11-17T00:45:20.140Z,1000.81
2022-11-17T00:45:50.718Z,1000.82
2022-11-17T00:46:21.277Z,1000.82
2022-11-17T00:46:51.843Z,1000.82
2022-11-17T00:47:22.415Z,1000.82
2022-11-17T00:47:53.035Z,1000.81
2022-11-17T00:48:23.612Z,1000.80
2022-11-17T00:48:54.188Z,1000.78
2022-11-17T00:49:24.813Z,1000.76
2022-11-17T00:49:55.429Z,1000.75
2022-11-17T00:50:26.025Z,1000.73
2022-11-17T00:50:56.577Z,1000.72
2022-11-17T00:51:27.154Z,1000.72
2022-11-17T00:51:57.714Z,1000.71
2022-11-17T00:52:28.318Z,1000.70
2022-11-17T00:52:58.897Z,1000.70
2022-11-17T00:53:29.476Z,1000.68
2022-11-17T00:54:00.050Z,1000.68
2022-11-17T00:54:30.579Z,1000.69
2022-11-17T00:55:01.252Z,1000.69
2022-11-17T00:55:31.983Z,1000.70
2022-11-17T00:56:02.581Z,1000.72
2022-11-17T00:56:33.145Z,1000.73
2022-11-17T00:57:03.721Z,1000.74
2022-11-17T00:57:34.304Z,1000.74
2022-11-17T00:58:04.858Z,1000.74
2022-11-17T00:58:35.415Z,1000.75
2022-11-17T00:59:05.981Z,1000.75
2022-11-17T00:59:36.559Z,1000.76
2022-11-17T01:00:07.191Z,1000.78
2022-11-17T01:00:37.781Z,1000.79
2022-11-17T01:01:08.435Z,1000.81
2022-11-17T01:01:38.997Z,1000.82
2022-11-17T01:02:09.544Z,1000.81
2022-11-17T01:02:40.127Z,1000.81
2022-11-17T01:03:10.683Z,1000.80
2022-11-17T01:03:41.252Z,1000.79
2022-11-17T01:04:11.863Z,1000.79
2022-11-17T01:04:42.425Z,1000.78
2022-11-17T01:05:13.018Z,1000.78
2022-11-17T01:05:43.620Z,1000.76
2022-11-17T01:06:13.186Z,1000.76
2022-11-17T01:06:44.813Z,1000.75
2022-11-17T01:07:15.501Z,1000.74
2022-11-17T01:07:46.070Z,1000.73
2022-11-17T01:08:16.603Z,1000.72
2022-11-17T01:08:47.159Z,1000.71
2022-11-17T01:09:17.711Z,1000.70
2022-11-17T01:09:48.328Z,1000.69
2022-11-17T01:10:18.903Z,1000.68
2022-11-17T01:10:49.514Z,1000.68
2022-11-17T01:11:20.049Z,1000.69
2022-11-17T01:11:50.638Z,1000.71
2022-11-17T01:12:21.221Z,1000.73
2022-11-17T01:12:51.806Z,1000.74
2022-11-17T01:13:22.395Z,1000.72
2022-11-17T01:13:52.978Z,1000.71
2022-11-17T01:14:23.533Z,1000.69
2022-11-17T01:14:54.125Z,1000.67
2022-11-17T01:15:24.684Z,1000.68
2022-11-17T01:15:55.239Z,1000.69
2022-11-17T01:16:25.797Z,1000.72
2022-11-17T01:16:56.365Z,1000.75
2022-11-17T01:17:26.930Z,1000.79
2022-11-17T01:17:57.514Z,1000.81
2022-11-17T01:18:28.088Z,1000.79
2022-11-17T01:18:58.705Z,1000.75
2022-11-17T01:19:29.294Z,1000.69
2022-11-17T01:19:59.856Z,1000.64
2022-11-17T01:20:30.443Z,1000.62
2022-11-17T01:21:01.049Z,1000.62
2022-11-17T01:21:31.662Z,1000.63
2022-11-17T01:22:02.276Z,1000.65
2022-11-17T01:22:32.873Z,1000.66
2022-11-17T01:23:03.434Z,1000.69
2022-11-17T01:23:34.408Z,1000.73
2022-11-17T01:24:04.650Z,1000.75
2022-11-17T01:24:35.220Z,1000.76
2022-11-17T01:25:05.779Z,1000.78
2022-11-17T01:25:36.333Z,1000.78
2022-11-17T01:26:07.055Z,1000.79
2022-11-17T01:26:37.589Z,1000.79
2022-11-17T01:27:08.180Z,1000.78
2022-11-17T01:27:38.751Z,1000.79
2022-11-17T01:28:09.328Z,1000.78
2022-11-17T01:28:39.879Z,1000.76
2022-11-17T01:29:10.441Z,1000.75
2022-11-17T01:29:41.048Z,1000.74
2022-11-17T01:30:11.623Z,1000.74
2022-11-17T01:30:42.210Z,1000.74
2022-11-17T01:31:12.801Z,1000.72
2022-11-17T01:31:43.400Z,1000.70
2022-11-17T01:32:13.958Z,1000.68
2022-11-17T01:32:44.537Z,1000.65
2022-11-17T01:33:15.131Z,1000.62
2022-11-17T01:33:45.704Z,1000.60
2022-11-17T01:34:16.304Z,1000.58
2022-11-17T01:34:46.870Z,1000.55
2022-11-17T01:35:17.417Z,1000.50
2022-11-17T01:35:47.997Z,1000.47
2022-11-17T01:36:18.572Z,1000.44
2022-11-17T01:36:49.151Z,1000.43
2022-11-17T01:37:19.720Z,1000.42
2022-11-17T01:37:50.378Z,1000.40
2022-11-17T01:38:20.987Z,1000.37
2022-11-17T01:38:51.543Z,1000.36
2022-11-17T01:39:22.121Z,1000.36
2022-11-17T01:39:52.693Z,1000.36
2022-11-17T01:40:23.268Z,1000.37
2022-11-17T01:40:53.830Z,1000.37
2022-11-17T01:41:24.438Z,1000.38
2022-11-17T01:41:55.004Z,1000.40
2022-11-17T01:42:25.579Z,1000.41
2022-11-17T01:42:56.203Z,1000.42
2022-11-17T01:43:26.759Z,1000.43
2022-11-17T01:43:57.352Z,1000.44
2022-11-17T01:44:27.927Z,1000.44
2022-11-17T01:44:58.502Z,1000.43
2022-11-17T01:45:29.091Z,1000.42
2022-11-17T01:45:59.659Z,1000.41
2022-11-17T01:46:30.238Z,1000.40
2022-11-17T01:47:01.318Z,1000.39
2022-11-17T01:47:31.433Z,1000.38
2022-11-17T01:48:02.055Z,1000.37
2022-11-17T01:48:32.626Z,1000.36
2022-11-17T01:49:03.212Z,1000.36
2022-11-17T01:49:33.838Z,1000.36
2022-11-17T01:50:04.390Z,1000.37
2022-11-17T01:50:34.986Z,1000.38
2022-11-17T01:51:05.586Z,1000.37
2022-11-17T01:51:36.176Z,1000.37
2022-11-17T01:52:06.752Z,1000.36
2022-11-17T01:52:37.315Z,1000.34
2022-11-17T01:53:07.911Z,1000.33
2022-11-17T01:53:38.510Z,1000.31
2022-11-17T01:54:09.124Z,1000.29
2022-11-17T01:54:39.662Z,1000.27
2022-11-17T01:55:10.255Z,1000.26
2022-11-17T01:55:40.838Z,1000.24
2022-11-17T01:56:11.417Z,1000.23
2022-11-17T01:56:42.133Z,1000.23
2022-11-17T01:57:12.682Z,1000.23
2022-11-17T01:57:43.249Z,1000.23
2022-11-17T01:58:13.830Z,1000.23
2022-11-17T01:58:44.438Z,1000.23
2022-11-17T01:59:15.015Z,1000.22
2022-11-17T01:59:45.588Z,1000.20
2022-11-17T02:00:16.130Z,1000.18
2022-11-17T02:00:46.739Z,1000.16
2022-11-17T02:01:17.349Z,1000.14
2022-11-17T02:01:47.923Z,1000.13
2022-11-17T02:02:18.483Z,1000.11
2022-11-17T02:02:49.054Z,1000.11
2022-11-17T02:03:19.633Z,1000.10
2022-11-17T02:03:50.223Z,1000.10
2022-11-17T02:04:20.792Z,1000.10
2022-11-17T02:04:51.369Z,1000.09
2022-11-17T02:05:21.953Z,1000.08
2022-11-17T02:05:52.535Z,1000.07
2022-11-17T02:06:23.123Z,1000.06
2022-11-17T02:06:53.764Z,1000.05
2022-11-17T02:07:24.411Z,1000.04
2022-11-17T02:07:54.962Z,1000.04
2022-11-17T02:08:25.537Z,1000.04
2022-11-17T02:08:56.107Z,1000.05
2022-11-17T02:09:26.684Z,1000.05
2022-11-17T02:09:57.246Z,1000.06
2022-11-17T02:10:27.836Z,1000.08
2022-11-17T02:10:58.400Z,1000.09
2022-11-17T02:11:28.980Z,1000.10
2022-11-17T02:11:59.563Z,1000.11
2022-11-17T02:12:30.100Z,1000.11
2022-11-17T02:13:00.671Z,1000.11
2022-11-17T02:13:31.240Z,1000.10
2022-11-17T02:14:01.808Z,1000.09
2022-11-17T02:14:32.360Z,1000.07
2022-11-17T02:15:02.950Z,1000.06
2022-11-17T02:15:33.546Z,1000.05
2022-11-17T02:16:04.128Z,1000.04
2022-11-17T02:16:34.693Z,1000.03
2022-11-17T02:17:13.066Z,1000.03
2022-11-17T02:17:36.008Z,1000.02
2022-11-17T02:18:06.593Z,1000.00
2022-11-17T02:18:37.184Z,999.99
2022-11-17T02:19:07.746Z,999.97
2022-11-17T02:19:38.310Z,999.96
2022-11-17T02:20:08.927Z,999.95
2022-11-17T02:20:39.490Z,999.96
2022-11-17T02:21:10.047Z,999.96
2022-11-17T02:21:40.613Z,999.96
2022-11-17T02:22:11.179Z,999.96
2022-11-17T02:22:41.729Z,999.95
2022-11-17T02:23:12.327Z,999.95
2022-11-17T02:23:42.889Z,999.93
2022-11-17T02:24:13.448Z,999.90
2022-11-17T02:24:44.025Z,999.88
2022-11-17T02:25:14.606Z,999.86
2022-11-17T02:25:45.160Z,999.85
2022-11-17T02:26:15.696Z,999.85
2022-11-17T02:26:46.269Z,999.84
2022-11-17T02:27:16.867Z,999.84
2022-11-17T02:27:47.421Z,999.84
2022-11-17T02:28:18.007Z,999.84
2022-11-17T02:28:48.578Z,999.85
2022-11-17T02:29:19.172Z,999.86
2022-11-17T02:29:49.731Z,999.87
2022-11-17T02:30:20.281Z,999.86
2022-11-17T02:30:50.860Z,999.84
2022-11-17T02:31:21.433Z,999.79
2022-11-17T02:31:51.991Z,999.74
2022-11-17T02:32:22.573Z,999.69
2022-11-17T02:32:53.146Z,999.66
2022-11-17T02:33:23.756Z,999.63
2022-11-17T02:33:54.321Z,999.61
2022-11-17T02:34:24.887Z,999.58
2022-11-17T02:34:55.495Z,999.57
2022-11-17T02:35:26.064Z,999.56
2022-11-17T02:35:56.624Z,999.54
2022-11-17T02:36:27.224Z,999.52
2022-11-17T02:36:57.823Z,999.51
2022-11-17T02:37:28.398Z,999.48
2022-11-17T02:37:58.987Z,999.47
2022-11-17T02:38:29.562Z,999.45
2022-11-17T02:39:00.131Z,999.44
2022-11-17T02:39:30.719Z,999.42
2022-11-17T02:40:01.299Z,999.41
2022-11-17T02:40:31.880Z,999.39
2022-11-17T02:41:02.470Z,999.38
2022-11-17T02:41:33.045Z,999.36
2022-11-17T02:42:03.645Z,999.34
2022-11-17T02:42:34.312Z,999.33
2022-11-17T02:43:04.837Z,999.32
2022-11-17T02:43:35.727Z,999.30
2022-11-17T02:44:06.074Z,999.29
2022-11-17T02:44:36.669Z,999.27
2022-11-17T02:45:07.248Z,999.26
2022-11-17T02:45:37.807Z,999.25
2022-11-17T02:46:08.397Z,999.24
2022-11-17T02:46:38.979Z,999.24
2022-11-17T02:47:09.551Z,999.24
2022-11-17T02:47:40.114Z,999.23
2022-11-17T02:48:10.696Z,999.24
2022-11-17T02:48:41.276Z,999.26
2022-11-17T02:49:11.858Z,999.28
2022-11-17T02:49:42.437Z,999.29
2022-11-17T02:50:13.040Z,999.30
2022-11-17T02:50:43.623Z,999.31
2022-11-17T02:51:14.177Z,999.32
2022-11-17T02:51:44.755Z,999.32
2022-11-17T02:52:15.316Z,999.31
2022-11-17T02:52:45.911Z,999.30
2022-11-17T02:53:16.454Z,999.29
2022-11-17T02:53:47.016Z,999.28
2022-11-17T02:54:17.593Z,999.26
2022-11-17T02:54:48.188Z,999.23
2022-11-17T02:55:18.753Z,999.21
2022-11-17T02:55:49.326Z,999.21
2022-11-17T02:56:19.909Z,999.21
2022-11-17T02:56:50.486Z,999.21
2022-11-17T02:57:21.056Z,999.23
2022-11-17T02:57:51.663Z,999.23
2022-11-17T02:58:22.217Z,999.26
2022-11-17T02:58:52.778Z,999.26
2022-11-17T02:59:23.409Z,999.26
2022-11-17T02:59:53.987Z,999.25
2022-11-17T03:00:24.548Z,999.21
2022-11-17T03:00:55.100Z,999.17
2022-11-17T03:01:25.698Z,999.13
2022-11-17T03:01:56.358Z,999.12
2022-11-17T03:02:26.932Z,999.11
2022-11-17T03:02:57.517Z,999.11
2022-11-17T03:03:28.104Z,999.11
2022-11-17T03:03:58.673Z,999.10
2022-11-17T03:04:29.262Z,999.10
2022-11-17T03:04:59.859Z,999.10
2022-11-17T03:05:30.448Z,999.08
2022-11-17T03:06:00.991Z,999.07
2022-11-17T03:06:31.555Z,999.05
2022-11-17T03:07:02.282Z,999.05
2022-11-17T03:07:32.972Z,999.04
2022-11-17T03:08:03.577Z,999.03
2022-11-17T03:08:34.159Z,999.03
2022-11-17T03:09:04.733Z,999.01
2022-11-17T03:09:35.312Z,999.02
2022-11-17T03:10:05.918Z,999.02
2022-11-17T03:10:36.474Z,999.01
2022-11-17T03:11:07.035Z,999.01
2022-11-17T03:11:37.589Z,999.01
2022-11-17T03:12:08.150Z,999.01
2022-11-17T03:12:38.739Z,999.01
2022-11-17T03:13:09.446Z,999.02
2022-11-17T03:13:39.976Z,999.03
2022-11-17T03:14:10.521Z,999.02
2022-11-17T03:14:41.086Z,999.02
2022-11-17T03:15:11.659Z,999.02
2022-11-17T03:15:42.258Z,999.03
2022-11-17T03:16:12.830Z,999.04
2022-11-17T03:16:43.404Z,999.04
2022-11-17T03:17:13.961Z,999.05
2022-11-17T03:17:44.540Z,999.05
2022-11-17T03:18:15.098Z,999.06
2022-11-17T03:18:45.655Z,999.07
2022-11-17T03:19:16.229Z,999.07
2022-11-17T03:19:46.812Z,999.07
2022-11-17T03:20:17.369Z,999.05
2022-11-17T03:20:47.950Z,999.03
2022-11-17T03:21:18.530Z,999.00
2022-11-17T03:21:49.130Z,999.00
2022-11-17T03:22:19.670Z,999.01
2022-11-17T03:22:50.237Z,999.02
2022-11-17T03:23:20.812Z,999.01
2022-11-17T03:23:51.401Z,999.01
2022-11-17T03:24:22.120Z,999.00
2022-11-17T03:24:52.699Z,998.98
2022-11-17T03:25:23.295Z,998.96
2022-11-17T03:25:53.873Z,998.94
2022-11-17T03:26:24.457Z,998.94
2022-11-17T03:26:55.042Z,998.94
2022-11-17T03:27:25.632Z,998.94
2022-11-17T03:27:56.202Z,998.94
2022-11-17T03:28:26.888Z,998.94
2022-11-17T03:28:57.462Z,998.94
2022-11-17T03:29:28.019Z,998.93
2022-11-17T03:29:58.586Z,998.91
2022-11-17T03:30:33.222Z,998.91
2022-11-17T03:30:59.952Z,998.91
2022-11-17T03:31:30.520Z,998.91
2022-11-17T03:32:01.119Z,998.90
2022-11-17T03:32:31.705Z,998.89
2022-11-17T03:33:02.269Z,998.86
2022-11-17T03:33:33.156Z,998.83
2022-11-17T03:34:03.382Z,998.81
2022-11-17T03:34:33.950Z,998.81
2022-11-17T03:35:04.511Z,998.80
2022-11-17T03:35:35.107Z,998.80
2022-11-17T03:36:05.678Z,998.80
2022-11-17T03:36:36.267Z,998.78
2022-11-17T03:37:06.834Z,998.78
2022-11-17T03:37:37.422Z,998.78
2022-11-17T03:38:08.005Z,998.79
2022-11-17T03:38:38.582Z,998.78
2022-11-17T03:39:09.162Z,998.76
2022-11-17T03:39:39.723Z,998.75
2022-11-17T03:40:10.302Z,998.75
2022-11-17T03:40:40.899Z,998.75
2022-11-17T03:41:11.463Z,998.77
2022-11-17T03:41:42.030Z,998.78
2022-11-17T03:42:12.613Z,998.79
2022-11-17T03:42:43.169Z,998.79
2022-11-17T03:43:13.733Z,998.81
2022-11-17T03:43:44.340Z,998.80
2022-11-17T03:44:14.881Z,998.79
2022-11-17T03:44:45.436Z,998.77
2022-11-17T03:45:16.013Z,998.75
2022-11-17T03:45:46.596Z,998.73
2022-11-17T03:46:17.138Z,998.72
2022-11-17T03:46:47.712Z,998.70
2022-11-17T03:47:18.280Z,998.69
2022-11-17T03:47:48.857Z,998.69
2022-11-17T03:48:19.440Z,998.70
2022-11-17T03:48:50.022Z,998.71
2022-11-17T03:49:20.603Z,998.71
2022-11-17T03:49:51.187Z,998.70
2022-11-17T03:50:21.753Z,998.71
2022-11-17T03:50:52.354Z,998.71
2022-11-17T03:51:22.928Z,998.71
2022-11-17T03:51:53.509Z,998.69
2022-11-17T03:52:24.103Z,998.67
2022-11-17T03:52:54.664Z,998.66
2022-11-17T03:53:25.240Z,998.66
2022-11-17T03:53:55.808Z,998.67
2022-11-17T03:54:26.406Z,998.69
2022-11-17T03:54:56.983Z,998.69
2022-11-17T03:55:27.542Z,998.70
2022-11-17T03:55:58.113Z,998.70
2022-11-17T03:56:28.687Z,998.71
2022-11-17T03:56:59.272Z,998.72
2022-11-17T03:57:29.842Z,998.71
2022-11-17T03:58:00.397Z,998.72
2022-11-17T03:58:30.990Z,998.72
2022-11-17T03:59:01.716Z,998.71
2022-11-17T03:59:32.248Z,998.68
2022-11-17T04:00:02.849Z,998.65
2022-11-17T04:00:33.401Z,998.62
2022-11-17T04:01:04.005Z,998.57
2022-11-17T04:01:34.617Z,998.54
2022-11-17T04:02:05.286Z,998.53
2022-11-17T04:02:35.841Z,998.52
2022-11-17T04:03:06.385Z,998.53
2022-11-17T04:03:37.269Z,998.56
2022-11-17T04:04:07.607Z,998.59
2022-11-17T04:04:38.194Z,998.62
2022-11-17T04:05:08.776Z,998.65
2022-11-17T04:05:39.348Z,998.70
2022-11-17T04:06:09.916Z,998.75
2022-11-17T04:06:40.497Z,998.77
2022-11-17T04:07:11.115Z,998.77
2022-11-17T04:07:41.689Z,998.75
2022-11-17T04:08:12.295Z,998.74
2022-11-17T04:08:42.841Z,998.71
2022-11-17T04:09:13.413Z,998.68
2022-11-17T04:09:43.995Z,998.67
2022-11-17T04:10:14.570Z,998.65
2022-11-17T04:10:45.117Z,998.62
2022-11-17T04:11:15.656Z,998.58
2022-11-17T04:11:46.207Z,998.55
2022-11-17T04:12:16.802Z,998.55
2022-11-17T04:12:47.369Z,998.54
2022-11-17T04:13:17.943Z,998.52
2022-11-17T04:13:48.502Z,998.49
2022-11-17T04:14:19.087Z,998.48
2022-11-17T04:14:49.644Z,998.48
2022-11-17T04:15:20.257Z,998.47
2022-11-17T04:15:50.866Z,998.45
2022-11-17T04:16:21.417Z,998.41
2022-11-17T04:16:51.990Z,998.39
2022-11-17T04:17:22.537Z,998.38
2022-11-17T04:17:53.091Z,998.37
2022-11-17T04:18:23.653Z,998.38
2022-11-17T04:18:58.573Z,998.37
2022-11-17T04:19:24.906Z,998.38
2022-11-17T04:19:55.493Z,998.37
2022-11-17T04:20:26.051Z,998.36
2022-11-17T04:20:56.653Z,998.36
2022-11-17T04:21:27.233Z,998.36
2022-11-17T04:21:57.810Z,998.38
2022-11-17T04:22:28.358Z,998.38
2022-11-17T04:22:58.938Z,998.38
2022-11-17T04:23:29.499Z,998.38
2022-11-17T04:24:00.071Z,998.38
2022-11-17T04:24:30.631Z,998.36
2022-11-17T04:25:01.202Z,998.32
2022-11-17T04:25:31.782Z,998.30
2022-11-17T04:26:02.361Z,998.28
2022-11-17T04:26:32.947Z,998.27
2022-11-17T04:27:03.517Z,998.27
2022-11-17T04:27:34.108Z,998.28
2022-11-17T04:28:04.701Z,998.28
2022-11-17T04:28:35.285Z,998.28
2022-11-17T04:29:05.902Z,998.30
2022-11-17T04:29:36.565Z,998.30
2022-11-17T04:30:07.098Z,998.33
2022-11-17T04:30:37.697Z,998.36
2022-11-17T04:31:08.275Z,998.38
2022-11-17T04:31:38.820Z,998.39
2022-11-17T04:32:09.414Z,998.40
2022-11-17T04:32:39.989Z,998.41
2022-11-17T04:33:10.549Z,998.42
2022-11-17T04:33:41.111Z,998.43
2022-11-17T04:34:11.706Z,998.45
2022-11-17T04:34:42.286Z,998.46
2022-11-17T04:35:12.889Z,998.47
2022-11-17T04:35:43.442Z,998.47
2022-11-17T04:36:14.035Z,998.48
2022-11-17T04:36:44.609Z,998.48
2022-11-17T04:37:15.164Z,998.46
2022-11-17T04:37:45.711Z,998.44
2022-11-17T04:38:16.248Z,998.44
2022-11-17T04:38:46.832Z,998.45
2022-11-17T04:39:17.396Z,998.47
2022-11-17T04:39:47.975Z,998.50
2022-11-17T04:40:18.533Z,998.53
2022-11-17T04:40:49.099Z,998.55
2022-11-17T04:41:19.694Z,998.56
2022-11-17T04:41:50.246Z,998.56
2022-11-17T04:42:20.829Z,998.56
2022-11-17T04:42:51.380Z,998.57
2022-11-17T04:43:21.959Z,998.58
2022-11-17T04:43:52.500Z,998.59
2022-11-17T04:44:23.084Z,998.61
2022-11-17T04:44:53.659Z,998.63
2022-11-17T04:45:24.187Z,998.66
2022-11-17T04:45:54.748Z,998.69
2022-11-17T04:46:25.345Z,998.71
2022-11-17T04:46:55.919Z,998.73
2022-11-17T04:47:26.484Z,998.76
2022-11-17T04:47:57.018Z,998.79
2022-11-17T04:48:27.587Z,998.83
2022-11-17T04:48:58.149Z,998.86
2022-11-17T04:49:28.682Z,998.90
2022-11-17T04:49:59.237Z,998.93
2022-11-17T04:50:29.797Z,998.96
2022-11-17T04:51:00.399Z,998.98
2022-11-17T04:51:30.988Z,999.01
2022-11-17T04:52:01.571Z,999.04
2022-11-17T04:52:32.154Z,999.07
2022-11-17T04:53:02.722Z,999.10
2022-11-17T04:53:33.692Z,999.12
2022-11-17T04:54:03.946Z,999.12
2022-11-17T04:54:34.494Z,999.08
2022-11-17T04:55:05.063Z,999.07
2022-11-17T04:55:35.593Z,999.08
2022-11-17T04:56:06.216Z,999.06
2022-11-17T04:56:36.787Z,999.05
2022-11-17T04:57:07.397Z,999.05
2022-11-17T04:57:37.961Z,999.06
2022-11-17T04:58:10.892Z,999.08
2022-11-17T04:58:39.486Z,999.10
2022-11-17T04:59:10.049Z,999.14
2022-11-17T04:59:40.658Z,999.13
2022-11-17T05:00:11.212Z,999.06
2022-11-17T05:00:41.757Z,999.00
2022-11-17T05:01:12.402Z,998.96
2022-11-17T05:01:43.054Z,998.94
2022-11-17T05:02:13.692Z,998.97
2022-11-17T05:02:44.286Z,999.03
2022-11-17T05:03:14.842Z,999.08
2022-11-17T05:03:45.377Z,999.11
2022-11-17T05:04:15.952Z,999.14
2022-11-17T05:04:46.479Z,999.14
2022-11-17T05:05:17.055Z,999.17
2022-11-17T05:05:47.654Z,999.26
2022-11-17T05:06:18.232Z,999.32
2022-11-17T05:06:48.816Z,999.34
2022-11-17T05:07:19.449Z,999.37
2022-11-17T05:07:50.013Z,999.41
2022-11-17T05:08:20.604Z,999.43
2022-11-17T05:08:51.202Z,999.47
2022-11-17T05:09:21.781Z,999.53
2022-11-17T05:09:52.357Z,999.60
2022-11-17T05:10:22.966Z,999.60
2022-11-17T05:10:53.605Z,999.57
2022-11-17T05:11:24.231Z,999.48
2022-11-17T05:11:54.879Z,999.42
2022-11-17T05:12:25.517Z,999.40
2022-11-17T05:12:56.051Z,999.36
2022-11-17T05:13:26.616Z,999.35
2022-11-17T05:13:57.170Z,999.40
2022-11-17T05:14:27.745Z,999.46
2022-11-17T05:14:58.341Z,999.48
2022-11-17T05:15:29.014Z,999.46
2022-11-17T05:15:59.548Z,999.43
2022-11-17T05:16:30.127Z,999.39
2022-11-17T05:17:07.330Z,999.35
2022-11-17T05:17:31.520Z,999.33
2022-11-17T05:18:02.093Z,999.36
2022-11-17T05:18:32.636Z,999.37
2022-11-17T05:19:03.220Z,999.36
2022-11-17T05:19:33.794Z,999.33
2022-11-17T05:20:04.365Z,999.28
2022-11-17T05:20:34.935Z,999.26
2022-11-17T05:21:05.489Z,999.26
2022-11-17T05:21:36.056Z,999.27
2022-11-17T05:22:06.642Z,999.28
2022-11-17T05:22:37.225Z,999.29
2022-11-17T05:23:07.760Z,999.29
2022-11-17T05:23:38.420Z,999.29
2022-11-17T05:24:09.008Z,999.31
2022-11-17T05:24:39.591Z,999.32
2022-11-17T05:25:10.178Z,999.32
2022-11-17T05:25:40.744Z,999.31
2022-11-17T05:26:11.302Z,999.31
2022-11-17T05:26:41.833Z,999.32
2022-11-17T05:27:12.403Z,999.33
2022-11-17T05:27:43.038Z,999.34
2022-11-17T05:28:13.620Z,999.34
2022-11-17T05:28:44.192Z,999.34
2022-11-17T05:29:14.720Z,999.34
2022-11-17T05:29:45.287Z,999.35
2022-11-17T05:30:15.843Z,999.38
2022-11-17T05:30:46.425Z,999.39
2022-11-17T05:31:17.036Z,999.38
2022-11-17T05:31:48.124Z,999.35
2022-11-17T05:32:18.443Z,999.31
2022-11-17T05:32:49.034Z,999.24
2022-11-17T05:33:20.092Z,999.17
2022-11-17T05:33:51.817Z,999.12
2022-11-17T05:34:21.824Z,999.08
2022-11-17T05:34:52.387Z,999.06
2022-11-17T05:35:22.969Z,999.06
2022-11-17T05:35:53.809Z,999.06
2022-11-17T05:36:24.372Z,999.07
2022-11-17T05:36:54.913Z,999.08
2022-11-17T05:37:25.496Z,999.08
2022-11-17T05:37:56.070Z,999.09
2022-11-17T05:38:26.690Z,999.10
2022-11-17T05:38:57.259Z,999.09
2022-11-17T05:39:27.820Z,999.08
2022-11-17T05:39:58.391Z,999.07
2022-11-17T05:40:28.956Z,999.07
2022-11-17T05:40:59.511Z,999.11
2022-11-17T05:41:30.095Z,999.13
2022-11-17T05:42:00.674Z,999.14
2022-11-17T05:42:31.253Z,999.15
2022-11-17T05:43:01.841Z,999.15
2022-11-17T05:43:32.573Z,999.16
2022-11-17T05:44:03.231Z,999.18
2022-11-17T05:44:33.790Z,999.19
2022-11-17T05:45:04.380Z,999.20
2022-11-17T05:45:34.938Z,999.19
2022-11-17T05:46:05.622Z,999.20
2022-11-17T05:46:36.159Z,999.21
2022-11-17T05:47:06.732Z,999.23
2022-11-17T05:47:37.278Z,999.25
2022-11-17T05:48:08.101Z,999.26
2022-11-17T05:48:38.666Z,999.27
2022-11-17T05:49:09.228Z,999.24
2022-11-17T05:49:39.779Z,999.22
2022-11-17T05:50:10.321Z,999.18
2022-11-17T05:50:40.877Z,999.16
2022-11-17T05:51:11.424Z,999.13
2022-11-17T05:51:42.015Z,999.09
2022-11-17T05:52:12.589Z,999.05
2022-11-17T05:52:43.143Z,999.02
2022-11-17T05:53:13.698Z,998.99
2022-11-17T05:53:44.326Z,998.98
2022-11-17T05:54:14.869Z,998.97
2022-11-17T05:54:45.476Z,998.98
2022-11-17T05:55:16.021Z,998.99
2022-11-17T05:55:46.609Z,998.98
2022-11-17T05:56:17.153Z,998.95
2022-11-17T05:56:47.701Z,998.93
2022-11-17T05:57:18.270Z,998.89
2022-11-17T05:57:48.850Z,998.85
2022-11-17T05:58:19.452Z,998.80
2022-11-17T05:58:50.013Z,998.77
2022-11-17T05:59:26.224Z,998.75
2022-11-17T05:59:51.390Z,998.73
2022-11-17T06:00:21.990Z,998.71
2022-11-17T06:00:52.571Z,998.68
2022-11-17T06:01:23.273Z,998.67
2022-11-17T06:01:53.804Z,998.66
2022-11-17T06:02:24.370Z,998.65
2022-11-17T06:02:54.958Z,998.64
2022-11-17T06:03:25.521Z,998.64
2022-11-17T06:03:56.202Z,998.65
2022-11-17T06:04:26.885Z,998.67
2022-11-17T06:04:57.415Z,998.69
2022-11-17T06:05:27.998Z,998.69
2022-11-17T06:05:58.551Z,998.69
2022-11-17T06:06:29.072Z,998.69
2022-11-17T06:06:59.717Z,998.68
2022-11-17T06:07:30.381Z,998.66
2022-11-17T06:08:00.938Z,998.65
2022-11-17T06:08:31.497Z,998.63
2022-11-17T06:09:02.065Z,998.61
2022-11-17T06:09:32.625Z,998.60
2022-11-17T06:10:03.176Z,998.61
2022-11-17T06:10:34.177Z,998.61
2022-11-17T06:11:04.702Z,998.62
2022-11-17T06:11:35.748Z,998.61
2022-11-17T06:12:06.660Z,998.60
2022-11-17T06:12:37.245Z,998.58
2022-11-17T06:13:07.767Z,998.58
2022-11-17T06:13:38.549Z,998.59
2022-11-17T06:14:09.196Z,998.60
2022-11-17T06:14:40.198Z,998.62
2022-11-17T06:15:11.194Z,998.64
2022-11-17T06:15:42.240Z,998.67
2022-11-17T06:16:12.770Z,998.68
2022-11-17T06:16:43.446Z,998.72
2022-11-17T06:17:18.887Z,998.75
2022-11-17T06:17:44.667Z,998.74